Time;durP1;ratioP1;P1;durP2;ratioP2;P2;SDS_P1;SDS_P2;PMS_P1;PMS_P2;Temp;Humidity;BMP_temperature;BMP_pressure;BME280_temperature;BME280_humidity;BME280_pressure;Samples;Min_cycle;Max_cycle;Signal;HPM_P1;HPM_P2
2022/09/12 00:01:12;;;;;;;;;;;;;;;11.39;100.00;99881.44;3052996;19;20656;-48
2022/09/12 00:02:14;;;;;;;;;;;;;;;11.30;100.00;99880.31;3053630;19;20392;-50
2022/09/12 00:03:19;;;;;;;;;;;;;;;11.27;100.00;99875.19;3054073;19;19932;-52
2022/09/12 00:04:20;;;;;;;;;;;;;;;11.23;100.00;99878.22;3053965;19;20325;-50
2022/09/12 00:05:25;;;;;;;;;;;;;;;11.16;100.00;99873.31;3052745;19;19919;-52
2022/09/12 00:06:28;;;;;;;;;;;;;;;11.13;100.00;99868.19;3052884;19;19982;-50
2022/09/12 00:07:32;;;;;;;;;;;;;;;11.13;100.00;99865.53;3053575;19;19922;-53
2022/09/12 00:08:34;;;;;;;;;;;;;;;11.13;100.00;99878.88;3053594;19;20383;-52
2022/09/12 00:09:39;;;;;;;;;;;;;;;11.12;100.00;99861.16;3053388;19;19918;-51
2022/09/12 00:10:42;;;;;;;;;;;;;;;11.07;100.00;99863.31;3053730;19;19926;-49
2022/09/12 00:11:47;;;;;;;;;;;;;;;11.06;100.00;99858.09;3053666;19;19985;-50
2022/09/12 00:12:49;;;;;;;;;;;;;;;11.05;100.00;99841.22;3052554;19;19994;-50
2022/09/12 00:13:53;;;;;;;;;;;;;;;10.99;100.00;99849.66;3056169;19;19919;-50
2022/09/12 00:14:55;;;;;;;;;;;;;;;11.01;100.00;99852.22;3051070;19;20284;-52
2022/09/12 00:15:59;;;;;;;;;;;;;;;10.96;100.00;99843.72;3049366;19;19919;-49
2022/09/12 00:17:04;;;;;;;;;;;;;;;10.94;100.00;99848.31;3049619;19;19923;-47
2022/09/12 00:18:07;;;;;;;;;;;;;;;10.95;100.00;99842.88;3050957;19;19919;-50
2022/09/12 00:19:12;;;;;;;;;;;;;;;10.97;100.00;99845.44;3051957;19;19923;-47
2022/09/12 00:20:13;;;;;;;;;;;;;;;10.94;100.00;99835.81;3051881;19;19922;-50
2022/09/12 00:21:19;;;;;;;;;;;;;;;10.93;100.00;99846.59;3051652;19;19923;-54
2022/09/12 00:22:20;;;;;;;;;;;;;;;10.93;100.00;99836.78;3055712;19;19961;-51
2022/09/12 00:23:25;;;;;;;;;;;;;;;10.90;100.00;99834.31;3056110;19;19918;-52
2022/09/12 00:24:27;;;;;;;;;;;;;;;10.89;100.00;99831.78;3057271;19;19978;-52
2022/09/12 00:25:31;;;;;;;;;;;;;;;10.87;100.00;99831.88;3054948;19;19927;-51
2022/09/12 00:26:33;;;;;;;;;;;;;;;10.86;100.00;99827.53;3056867;19;19923;-51
2022/09/12 00:27:38;;;;;;;;;;;;;;;10.85;100.00;99823.16;3056463;19;19922;-51
2022/09/12 00:28:40;;;;;;;;;;;;;;;10.81;100.00;99824.34;3056608;19;19932;-53
2022/09/12 00:29:44;;;;;;;;;;;;;;;10.85;100.00;99825.81;3055995;19;19936;-54
2022/09/12 00:30:47;;;;;;;;;;;;;;;10.87;100.00;99826.53;3056891;19;20000;-51
2022/09/12 00:31:51;;;;;;;;;;;;;;;10.87;100.00;99821.19;3056563;19;19939;-50
2022/09/12 00:32:53;;;;;;;;;;;;;;;10.83;100.00;99822.41;3056392;19;19926;-48
2022/09/12 00:34:00;;;;;;;;;;;;;;;10.84;100.00;99813.44;3055431;19;20558;-53
2022/09/12 00:35:03;;;;;;;;;;;;;;;10.84;100.00;99818.78;3055736;19;19918;-53
2022/09/12 00:36:09;;;;;;;;;;;;;;;10.83;100.00;99814.41;3055576;19;19947;-49
2022/09/12 00:37:11;;;;;;;;;;;;;;;10.79;100.00;99811.09;3053160;19;19929;-50
2022/09/12 00:38:15;;;;;;;;;;;;;;;10.79;100.00;99810.25;3049437;19;19921;-51
2022/09/12 00:39:18;;;;;;;;;;;;;;;10.75;100.00;99806.09;3048432;19;20104;-51
2022/09/12 00:40:22;;;;;;;;;;;;;;;10.59;100.00;99787.69;3049132;19;21000;-51
2022/09/12 00:41:28;;;;;;;;;;;;;;;10.67;100.00;99811.13;3051925;19;19925;-52
2022/09/12 00:42:32;;;;;;;;;;;;;;;10.67;100.00;99805.81;3051806;19;19989;-50
2022/09/12 00:43:38;;;;;;;;;;;;;;;10.64;100.00;99814.03;3052349;19;20013;-52
2022/09/12 00:44:44;;;;;;;;;;;;;;;10.55;100.00;99806.69;3053994;19;20498;-53
2022/09/12 00:45:46;;;;;;;;;;;;;;;10.52;100.00;99804.25;3054466;19;19911;-55
2022/09/12 00:46:58;;;;;;;;;;;;;;;10.41;100.00;99805.88;3055234;19;19918;-55
2022/09/12 00:48:01;;;;;;;;;;;;;;;10.39;100.00;99810.44;3055724;19;19925;-48
2022/09/12 00:49:05;;;;;;;;;;;;;;;10.43;100.00;99803.94;3055415;19;19990;-51
2022/09/12 00:50:09;;;;;;;;;;;;;;;10.40;100.00;99798.81;3055320;19;19915;-51
2022/09/12 00:51:13;;;;;;;;;;;;;;;10.38;100.00;99800.78;3055289;19;19933;-52
2022/09/12 00:52:16;;;;;;;;;;;;;;;10.33;100.00;99800.25;3054409;19;20703;-53
2022/09/12 00:53:20;;;;;;;;;;;;;;;10.35;100.00;99795.66;3055512;19;19926;-52
2022/09/12 00:54:24;;;;;;;;;;;;;;;10.31;100.00;99798.63;3054892;19;19914;-53
2022/09/12 00:55:54;;;;;;;;;;;;;;;10.31;100.00;99787.97;3054966;19;19926;-49
2022/09/12 00:56:57;;;;;;;;;;;;;;;10.35;100.00;99790.31;3055372;19;19942;-53
2022/09/12 00:58:03;;;;;;;;;;;;;;;10.39;100.00;99791.78;3056140;19;19996;-53
2022/09/12 00:59:07;;;;;;;;;;;;;;;10.40;100.00;99787.31;3055009;19;19919;-50
2022/09/12 01:00:15;;;;;;;;;;;;;;;10.38;100.00;99784.78;3048005;19;19919;-56
2022/09/12 01:01:17;;;;;;;;;;;;;;;10.40;100.00;99785.50;3048100;19;19926;-51
2022/09/12 01:02:22;;;;;;;;;;;;;;;10.40;100.00;99782.81;3047896;19;19951;-52
2022/09/12 01:03:24;;;;;;;;;;;;;;;10.40;100.00;99781.97;3050019;19;20739;-52
2022/09/12 01:04:29;;;;;;;;;;;;;;;10.39;100.00;99775.78;3050189;19;19943;-53
2022/09/12 01:05:31;;;;;;;;;;;;;;;10.36;100.00;99786.69;3049840;19;20002;-51
2022/09/12 01:06:39;;;;;;;;;;;;;;;10.34;100.00;99788.63;3050023;19;21226;-54
2022/09/12 01:07:41;;;;;;;;;;;;;;;10.25;100.00;99783.94;3054227;19;19974;-51
2022/09/12 01:08:45;;;;;;;;;;;;;;;10.30;100.00;99779.13;3055595;19;19983;-47
2022/09/12 01:09:47;;;;;;;;;;;;;;;10.26;100.00;99779.47;3054942;19;19926;-53
2022/09/12 01:10:52;;;;;;;;;;;;;;;10.32;100.00;99769.19;3054996;19;19918;-50
2022/09/12 01:11:54;;;;;;;;;;;;;;;10.32;100.00;99774.53;3054576;19;20254;-52
2022/09/12 01:12:58;;;;;;;;;;;;;;;10.39;100.00;99770.44;3054990;19;19939;-51
2022/09/12 01:14:00;;;;;;;;;;;;;;;10.35;100.00;99763.66;3055240;19;19947;-51
2022/09/12 01:15:04;;;;;;;;;;;;;;;10.32;100.00;99773.69;3054540;19;20009;-49
2022/09/12 01:16:06;;;;;;;;;;;;;;;10.36;100.00;99765.34;3054327;19;19923;-56
2022/09/12 01:17:15;;;;;;;;;;;;;;;10.35;100.00;99760.97;3054986;19;20434;-47
2022/09/12 01:18:23;;;;;;;;;;;;;;;10.35;100.00;99771.66;3054621;19;19922;-49
2022/09/12 01:19:46;;;;;;;;;;;;;;;10.32;100.00;99773.69;3054126;19;21046;-50
2022/09/12 01:21:17;;;;;;;;;;;;;;;10.26;100.00;99780.31;3055291;19;19919;-53
2022/09/12 01:22:34;;;;;;;;;;;;;;;10.24;100.00;99766.25;3049474;19;19951;-51
2022/09/12 01:23:41;;;;;;;;;;;;;;;10.23;100.00;99780.53;3047929;19;19926;-51
2022/09/12 01:24:51;;;;;;;;;;;;;;;10.13;100.00;99771.44;3047548;19;19922;-50
2022/09/12 01:26:02;;;;;;;;;;;;;;;10.18;100.00;99764.00;3049411;19;20026;-52
2022/09/12 01:27:23;;;;;;;;;;;;;;;10.16;100.00;99773.88;3049598;19;20616;-50
2022/09/12 01:28:35;;;;;;;;;;;;;;;10.14;100.00;99765.16;3050422;19;20375;-55
2022/09/12 01:29:39;;;;;;;;;;;;;;;10.13;100.00;99771.44;3054201;19;19942;-53
2022/09/12 01:30:44;;;;;;;;;;;;;;;10.13;100.00;99755.47;3054854;19;19974;-48
2022/09/12 01:32:05;;;;;;;;;;;;;;;10.11;100.00;99760.03;3055999;19;19964;-49
2022/09/12 01:33:15;;;;;;;;;;;;;;;10.17;100.00;99764.91;3055547;19;19934;-48
2022/09/12 01:34:38;;;;;;;;;;;;;;;10.04;100.00;99756.09;3054241;19;19932;-51
2022/09/12 01:36:00;;;;;;;;;;;;;;;10.12;100.00;99761.75;3054991;19;19919;-53
2022/09/12 01:37:12;;;;;;;;;;;;;;;10.17;100.00;99759.59;3053300;19;19986;-52
2022/09/12 01:38:37;;;;;;;;;;;;;;;10.19;100.00;99757.69;3054866;19;19918;-51
2022/09/12 01:39:42;;;;;;;;;;;;;;;10.18;100.00;99761.34;3054604;19;19947;-52
2022/09/12 01:40:56;;;;;;;;;;;;;;;10.23;100.00;99748.53;3055103;19;19975;-51
2022/09/12 01:42:04;;;;;;;;;;;;;;;10.28;100.00;99750.84;3054200;19;19926;-50
2022/09/12 01:43:25;;;;;;;;;;;;;;;10.28;100.00;99762.38;3054116;19;19930;-47
2022/09/12 01:44:29;;;;;;;;;;;;;;;10.33;100.00;99752.25;3051224;19;19998;-50
2022/09/12 01:45:34;;;;;;;;;;;;;;;10.39;100.00;99738.44;3048117;19;19990;-50
2022/09/12 01:46:41;;;;;;;;;;;;;;;10.43;100.00;99749.75;3047091;19;20377;-52
2022/09/12 01:47:50;;;;;;;;;;;;;;;10.50;100.00;99748.34;3048920;19;19915;-53
2022/09/12 01:49:05;;;;;;;;;;;;;;;10.51;100.00;99758.03;3050108;19;19927;-50
2022/09/12 01:50:10;;;;;;;;;;;;;;;10.56;100.00;99749.69;3049805;19;19935;-52
2022/09/12 01:51:22;;;;;;;;;;;;;;;10.51;100.00;99730.50;3049741;19;20321;-47
2022/09/12 01:52:45;;;;;;;;;;;;;;;10.62;100.00;99746.59;3053956;19;19915;-47
2022/09/12 01:53:48;;;;;;;;;;;;;;;10.64;100.00;99752.66;3055234;19;19978;-54
2022/09/12 01:54:53;;;;;;;;;;;;;;;10.70;100.00;99753.06;3054266;19;21000;-54
2022/09/12 01:56:08;;;;;;;;;;;;;;;10.74;100.00;99743.03;3054696;19;19939;-47
2022/09/12 01:57:18;;;;;;;;;;;;;;;10.74;100.00;99751.03;3053657;19;19938;-50
2022/09/12 01:58:33;;;;;;;;;;;;;;;10.75;100.00;99752.72;3055067;19;20087;-54
2022/09/12 01:59:38;;;;;;;;;;;;;;;10.77;100.00;99748.97;3054204;19;19947;-49
2022/09/12 02:00:42;;;;;;;;;;;;;;;10.82;100.00;99751.31;3054348;19;19918;-48
2022/09/12 02:01:55;;;;;;;;;;;;;;;10.85;100.00;99753.75;3054215;19;20012;-47
2022/09/12 02:02:59;;;;;;;;;;;;;;;10.90;100.00;99753.41;3054437;19;19926;-55
2022/09/12 02:04:07;;;;;;;;;;;;;;;10.88;100.00;99749.97;3054218;19;19922;-54
2022/09/12 02:05:17;;;;;;;;;;;;;;;10.90;100.00;99756.91;3054434;19;19939;-53
2022/09/12 02:06:23;;;;;;;;;;;;;;;10.85;100.00;99759.09;3053684;19;20330;-49
2022/09/12 02:07:30;;;;;;;;;;;;;;;10.88;100.00;99761.50;3048434;19;20729;-52
2022/09/12 02:08:35;;;;;;;;;;;;;;;10.91;100.00;99761.28;3047379;19;20303;-47
2022/09/12 02:09:42;;;;;;;;;;;;;;;10.96;100.00;99768.97;3047169;19;19914;-54
2022/09/12 02:10:48;;;;;;;;;;;;;;;10.91;100.00;99761.28;3048467;19;20011;-51
2022/09/12 02:11:51;;;;;;;;;;;;;;;10.92;100.00;99760.34;3049182;19;19943;-54
2022/09/12 02:12:57;;;;;;;;;;;;;;;10.92;100.00;99767.50;3049893;19;19986;-51
2022/09/12 02:14:06;;;;;;;;;;;;;;;10.94;100.00;99771.75;3049429;19;19919;-50
2022/09/12 02:15:11;;;;;;;;;;;;;;;10.97;100.00;99771.53;3054280;19;20021;-56
2022/09/12 02:16:18;;;;;;;;;;;;;;;10.94;100.00;99770.91;3053630;19;20347;-49
2022/09/12 02:17:25;;;;;;;;;;;;;;;10.95;100.00;99773.47;3054039;19;20039;-53
2022/09/12 02:18:27;;;;;;;;;;;;;;;11.00;100.00;99779.28;3053755;19;19918;-49
2022/09/12 02:19:32;;;;;;;;;;;;;;;11.01;100.00;99780.13;3054358;19;19977;-57
2022/09/12 02:20:35;;;;;;;;;;;;;;;11.06;100.00;99780.66;3054257;19;19919;-55
2022/09/12 02:21:55;;;;;;;;;;;;;;;11.06;100.00;99773.50;3053959;19;19919;-52
2022/09/12 02:22:57;;;;;;;;;;;;;;;11.05;100.00;99779.81;3054540;19;19959;-50
2022/09/12 02:24:03;;;;;;;;;;;;;;;11.05;100.00;99779.81;3054114;19;19937;-49
2022/09/12 02:25:05;;;;;;;;;;;;;;;11.04;100.00;99788.78;3053694;19;19926;-53
2022/09/12 02:26:12;;;;;;;;;;;;;;;11.06;100.00;99789.53;3053747;19;20089;-53
2022/09/12 02:27:14;;;;;;;;;;;;;;;11.06;100.00;99794.88;3053240;19;19970;-53
2022/09/12 02:28:20;;;;;;;;;;;;;;;11.06;100.00;99789.53;3054254;19;19996;-53
2022/09/12 02:29:22;;;;;;;;;;;;;;;11.00;100.00;99781.97;3052648;19;19943;-54
2022/09/12 02:30:26;;;;;;;;;;;;;;;10.99;100.00;99792.78;3048131;19;19914;-52
2022/09/12 02:31:33;;;;;;;;;;;;;;;11.02;100.00;99796.06;3047317;19;19919;-48
2022/09/12 02:32:46;;;;;;;;;;;;;;;11.00;100.00;99805.97;3047793;19;19923;-50
2022/09/12 02:33:52;;;;;;;;;;;;;;;11.05;100.00;99793.16;3049988;19;19933;-54
2022/09/12 02:34:58;;;;;;;;;;;;;;;11.03;100.00;99800.44;3048999;19;19923;-49
2022/09/12 02:36:11;;;;;;;;;;;;;;;11.06;100.00;99800.22;3047851;19;19918;-54
2022/09/12 02:37:25;;;;;;;;;;;;;;;11.06;100.00;99805.53;3053351;19;19930;-51
2022/09/12 02:38:35;;;;;;;;;;;;;;;11.05;100.00;99806.50;3054982;19;20555;-54
2022/09/12 02:39:40;;;;;;;;;;;;;;;11.01;100.00;99805.03;3054585;19;20315;-52
2022/09/12 02:40:45;;;;;;;;;;;;;;;11.02;100.00;99811.22;3053876;19;20641;-53
2022/09/12 02:41:53;;;;;;;;;;;;;;;11.02;100.00;99804.06;3054020;19;19971;-54
2022/09/12 02:42:55;;;;;;;;;;;;;;;11.00;100.00;99808.66;3054124;19;20381;-52
2022/09/12 02:44:00;;;;;;;;;;;;;;;11.00;100.00;99808.66;3054741;19;19930;-50
2022/09/12 02:45:02;;;;;;;;;;;;;;;11.00;100.00;99814.00;3053313;19;19948;-50
2022/09/12 02:46:08;;;;;;;;;;;;;;;10.96;100.00;99815.22;3054112;19;19926;-51
2022/09/12 02:47:22;;;;;;;;;;;;;;;11.00;100.00;99814.00;3054190;19;19923;-51
2022/09/12 02:48:30;;;;;;;;;;;;;;;11.00;100.00;99813.13;3054632;19;19970;-49
2022/09/12 02:49:32;;;;;;;;;;;;;;;11.01;100.00;99813.03;3053672;19;19954;-48
2022/09/12 02:50:36;;;;;;;;;;;;;;;11.02;100.00;99812.06;3053059;19;19998;-50
2022/09/12 02:51:38;;;;;;;;;;;;;;;11.03;100.00;99816.44;3051143;19;19947;-53
2022/09/12 02:52:43;;;;;;;;;;;;;;;11.06;100.00;99810.88;3046667;19;20524;-54
2022/09/12 02:53:45;;;;;;;;;;;;;;;11.05;100.00;99814.53;3046640;19;21042;-54
2022/09/12 02:54:49;;;;;;;;;;;;;;;11.06;100.00;99818.91;3047171;19;20025;-47
2022/09/12 02:55:51;;;;;;;;;;;;;;;11.05;100.00;99814.53;3048912;19;19944;-54
2022/09/12 02:56:55;;;;;;;;;;;;;;;11.06;100.00;99810.88;3048012;19;19919;-51
2022/09/12 02:57:57;;;;;;;;;;;;;;;11.09;100.00;99817.81;3049260;19;19990;-52
2022/09/12 02:59:03;;;;;;;;;;;;;;;11.04;100.00;99815.47;3048986;19;19919;-53
2022/09/12 03:00:05;;;;;;;;;;;;;;;11.07;100.00;99820.59;3053594;19;19922;-55
2022/09/12 03:01:10;;;;;;;;;;;;;;;11.09;100.00;99812.47;3054568;19;19926;-55
2022/09/12 03:02:21;;;;;;;;;;;;;;;11.11;100.00;99819.38;3054171;19;20406;-52
2022/09/12 03:03:28;;;;;;;;;;;;;;;11.13;100.00;99822.81;3054845;19;19951;-54
2022/09/12 03:04:35;;;;;;;;;;;;;;;11.11;100.00;99816.72;3054561;19;20026;-53
2022/09/12 03:05:46;;;;;;;;;;;;;;;11.10;100.00;99820.38;3053448;19;19947;-53
2022/09/12 03:07:05;;;;;;;;;;;;;;;11.02;100.00;99817.41;3053349;19;19970;-48
2022/09/12 03:08:12;;;;;;;;;;;;;;;11.05;100.00;99821.69;3052967;19;20407;-52
2022/09/12 03:09:28;;;;;;;;;;;;;;;11.06;100.00;99821.56;3053544;19;19915;-50
2022/09/12 03:10:39;;;;;;;;;;;;;;;11.05;100.00;99822.53;3052857;19;20609;-48
2022/09/12 03:11:43;;;;;;;;;;;;;;;11.04;100.00;99828.84;3053548;19;19927;-51
2022/09/12 03:12:58;;;;;;;;;;;;;;;11.02;100.00;99828.09;3054114;19;19923;-49
2022/09/12 03:14:05;;;;;;;;;;;;;;;11.00;100.00;99827.34;3052642;19;20289;-51
2022/09/12 03:15:28;;;;;;;;;;;;;;;11.06;100.00;99826.91;3046026;19;19939;-49
2022/09/12 03:16:49;;;;;;;;;;;;;;;10.96;100.00;99828.56;3046758;19;19918;-54
2022/09/12 03:17:59;;;;;;;;;;;;;;;11.00;100.00;99832.69;3047650;19;20338;-52
2022/09/12 03:19:23;;;;;;;;;;;;;;;10.96;100.00;99833.91;3048445;19;20372;-47
2022/09/12 03:20:36;;;;;;;;;;;;;;;11.01;100.00;99830.88;3048895;19;20026;-50
2022/09/12 03:21:49;;;;;;;;;;;;;;;10.88;100.00;99830.06;3050320;19;19923;-54
2022/09/12 03:22:52;;;;;;;;;;;;;;;10.90;100.00;99834.31;3053669;19;19930;-53
2022/09/12 03:24:03;;;;;;;;;;;;;;;10.88;100.00;99835.41;3053220;19;19915;-54
2022/09/12 03:25:16;;;;;;;;;;;;;;;10.91;100.00;99835.19;3052804;19;19998;-51
2022/09/12 03:26:22;;;;;;;;;;;;;;;10.96;100.00;99833.03;3053753;19;20286;-50
2022/09/12 03:27:26;;;;;;;;;;;;;;;10.96;100.00;99833.03;3053081;19;19951;-51
2022/09/12 03:28:30;;;;;;;;;;;;;;;10.92;100.00;99835.06;3053850;19;19923;-52
2022/09/12 03:29:32;;;;;;;;;;;;;;;10.92;100.00;99837.75;3053374;19;19919;-50
2022/09/12 03:30:40;;;;;;;;;;;;;;;10.87;100.00;99837.22;3053334;19;20358;-50
2022/09/12 03:31:50;;;;;;;;;;;;;;;10.89;100.00;99837.97;3052411;19;19985;-53
2022/09/12 03:32:55;;;;;;;;;;;;;;;10.87;100.00;99837.22;3053870;19;19982;-49
2022/09/12 03:33:58;;;;;;;;;;;;;;;10.85;100.00;99841.84;3053626;19;19926;-49
2022/09/12 03:35:02;;;;;;;;;;;;;;;10.87;100.00;99845.22;3053975;19;19923;-52
2022/09/12 03:36:07;;;;;;;;;;;;;;;10.90;100.00;99842.34;3054097;19;19919;-50
2022/09/12 03:37:09;;;;;;;;;;;;;;;10.98;100.00;99842.66;3049619;19;20638;-54
2022/09/12 03:38:13;;;;;;;;;;;;;;;10.94;100.00;99840.31;3046526;19;19922;-53
2022/09/12 03:39:15;;;;;;;;;;;;;;;10.98;100.00;99848.00;3045242;19;19920;-54
2022/09/12 03:40:20;;;;;;;;;;;;;;;10.98;100.00;99848.00;3046754;19;19993;-52
2022/09/12 03:41:22;;;;;;;;;;;;;;;11.01;100.00;99842.41;3049104;19;20658;-51
2022/09/12 03:42:26;;;;;;;;;;;;;;;11.03;100.00;99840.47;3048564;19;19918;-53
2022/09/12 03:43:28;;;;;;;;;;;;;;;11.07;100.00;99841.09;3049316;19;19947;-50
2022/09/12 03:44:33;;;;;;;;;;;;;;;11.02;100.00;99846.78;3051819;19;19998;-49
2022/09/12 03:45:35;;;;;;;;;;;;;;;11.02;100.00;99844.09;3053904;19;19923;-52
2022/09/12 03:46:39;;;;;;;;;;;;;;;10.97;100.00;99848.94;3053213;19;19919;-54
2022/09/12 03:47:41;;;;;;;;;;;;;;;10.93;100.00;99849.28;3053006;19;20363;-53
2022/09/12 03:48:45;;;;;;;;;;;;;;;10.93;100.00;99849.28;3054184;19;19978;-52
2022/09/12 03:49:47;;;;;;;;;;;;;;;10.93;100.00;99847.47;3053218;19;19926;-53
2022/09/12 03:50:52;;;;;;;;;;;;;;;10.93;100.00;99847.47;3053556;19;19923;-53
2022/09/12 03:51:54;;;;;;;;;;;;;;;10.98;100.00;99842.66;3053135;19;19915;-53
2022/09/12 03:53:00;;;;;;;;;;;;;;;11.02;100.00;99853.94;3053898;19;20676;-49
2022/09/12 03:54:02;;;;;;;;;;;;;;;10.96;100.00;99849.06;3053647;19;19915;-50
2022/09/12 03:55:07;;;;;;;;;;;;;;;10.85;100.00;99859.66;3053692;19;19939;-55
2022/09/12 03:56:09;;;;;;;;;;;;;;;10.89;100.00;99847.78;3053312;19;19954;-56
2022/09/12 03:57:14;;;;;;;;;;;;;;;10.86;100.00;99859.56;3053933;19;19919;-49
2022/09/12 03:58:15;;;;;;;;;;;;;;;10.90;100.00;99849.50;3053914;19;19978;-55
2022/09/12 03:59:20;;;;;;;;;;;;;;;10.91;100.00;99864.53;3051904;19;19947;-54
2022/09/12 04:00:22;;;;;;;;;;;;;;;10.89;100.00;99847.78;3046155;19;19914;-54
2022/09/12 04:01:27;;;;;;;;;;;;;;;10.91;100.00;99852.06;3045685;19;19927;-53
2022/09/12 04:02:29;;;;;;;;;;;;;;;10.84;100.00;99858.81;3045475;19;19944;-49
2022/09/12 04:03:33;;;;;;;;;;;;;;;10.83;100.00;99860.63;3048505;19;19919;-50
2022/09/12 04:04:35;;;;;;;;;;;;;;;10.86;100.00;99859.56;3048753;19;20678;-51
2022/09/12 04:05:39;;;;;;;;;;;;;;;10.86;100.00;99856.91;3049090;19;19922;-51
2022/09/12 04:06:42;;;;;;;;;;;;;;;10.85;100.00;99841.84;3049426;19;19940;-50
2022/09/12 04:07:47;;;;;;;;;;;;;;;10.88;100.00;99846.94;3053465;19;19974;-51
2022/09/12 04:08:50;;;;;;;;;;;;;;;10.92;100.00;99847.56;3053308;19;19926;-51
2022/09/12 04:09:55;;;;;;;;;;;;;;;10.90;100.00;99855.69;3053627;19;19927;-51
2022/09/12 04:11:07;;;;;;;;;;;;;;;10.87;100.00;99855.06;3052823;19;19950;-53
2022/09/12 04:12:12;;;;;;;;;;;;;;;10.83;100.00;99859.78;3055074;19;19930;-56
2022/09/12 04:13:14;;;;;;;;;;;;;;;10.80;100.00;99862.66;3054626;19;19922;-53
2022/09/12 04:14:19;;;;;;;;;;;;;;;10.87;100.00;99855.91;3055166;19;19914;-54
2022/09/12 04:15:21;;;;;;;;;;;;;;;10.94;100.00;99862.50;3053416;19;20449;-53
2022/09/12 04:16:25;;;;;;;;;;;;;;;10.95;100.00;99864.22;3052333;19;19926;-55
2022/09/12 04:17:27;;;;;;;;;;;;;;;10.98;100.00;99874.69;3053071;19;19985;-53
2022/09/12 04:18:31;;;;;;;;;;;;;;;11.01;100.00;99871.78;3053385;19;20392;-55
2022/09/12 04:19:33;;;;;;;;;;;;;;;11.00;100.00;99872.72;3053627;19;20464;-52
2022/09/12 04:20:38;;;;;;;;;;;;;;;11.02;100.00;99875.28;3053335;19;19919;-51
2022/09/12 04:21:40;;;;;;;;;;;;;;;11.05;100.00;99870.59;3052627;19;19960;-51
2022/09/12 04:22:44;;;;;;;;;;;;;;;11.01;100.00;99885.13;3046347;19;19943;-51
2022/09/12 04:23:46;;;;;;;;;;;;;;;11.03;100.00;99872.50;3046538;19;19997;-54
2022/09/12 04:24:51;;;;;;;;;;;;;;;11.06;100.00;99880.31;3043929;19;19938;-53
2022/09/12 04:25:57;;;;;;;;;;;;;;;11.09;100.00;99879.22;3047206;19;20629;-57
2022/09/12 04:27:01;;;;;;;;;;;;;;;11.13;100.00;99873.53;3047762;19;19979;-46
2022/09/12 04:28:08;;;;;;;;;;;;;;;11.17;100.00;99869.69;3048264;19;19919;-56
2022/09/12 04:29:13;;;;;;;;;;;;;;;11.11;100.00;99866.59;3047887;19;19923;-54
2022/09/12 04:30:15;;;;;;;;;;;;;;;11.12;100.00;99870.97;3051953;19;19996;-49
2022/09/12 04:31:21;;;;;;;;;;;;;;;11.06;100.00;99877.63;3052637;19;20014;-49
2022/09/12 04:32:23;;;;;;;;;;;;;;;11.09;100.00;99882.75;3052791;19;19948;-51
2022/09/12 04:33:27;;;;;;;;;;;;;;;11.07;100.00;99884.69;3052296;19;20402;-54
2022/09/12 04:34:30;;;;;;;;;;;;;;;11.03;100.00;99893.88;3051778;19;19914;-53
2022/09/12 04:35:36;;;;;;;;;;;;;;;11.00;100.00;99904.75;3050891;19;20390;-56
2022/09/12 04:36:40;;;;;;;;;;;;;;;10.97;100.00;99897.00;3052757;19;19923;-56
2022/09/12 04:37:43;;;;;;;;;;;;;;;11.05;100.00;99891.09;3053291;19;19952;-51
2022/09/12 04:38:48;;;;;;;;;;;;;;;11.00;100.00;99894.09;3053206;19;19975;-54
2022/09/12 04:39:50;;;;;;;;;;;;;;;10.91;100.00;99896.56;3053123;19;20374;-49
2022/09/12 04:40:55;;;;;;;;;;;;;;;10.98;100.00;99889.84;3053336;19;19918;-51
2022/09/12 04:41:57;;;;;;;;;;;;;;;10.94;100.00;99891.03;3052893;19;19970;-55
2022/09/12 04:43:02;;;;;;;;;;;;;;;11.00;100.00;99879.88;3053410;19;19947;-51
2022/09/12 04:44:05;;;;;;;;;;;;;;;11.00;100.00;99885.22;3052759;19;20291;-48
2022/09/12 04:45:10;;;;;;;;;;;;;;;10.99;100.00;99876.34;3045190;19;19935;-51
2022/09/12 04:46:14;;;;;;;;;;;;;;;10.99;100.00;99892.38;3044126;19;19943;-55
2022/09/12 04:47:18;;;;;;;;;;;;;;;10.99;100.00;99884.38;3045142;19;19915;-54
2022/09/12 04:48:20;;;;;;;;;;;;;;;10.99;100.00;99895.06;3047406;19;20354;-50
2022/09/12 04:49:25;;;;;;;;;;;;;;;10.93;100.00;99895.50;3048237;19;19991;-54
2022/09/12 04:50:27;;;;;;;;;;;;;;;11.02;100.00;99897.50;3047468;19;20853;-52
2022/09/12 04:51:35;;;;;;;;;;;;;;;10.98;100.00;99901.38;3048529;19;20760;-53
2022/09/12 04:52:37;;;;;;;;;;;;;;;10.77;100.00;99902.91;3052632;19;19926;-52
2022/09/12 04:53:42;;;;;;;;;;;;;;;10.77;100.00;99897.56;3053294;19;19926;-55
2022/09/12 04:54:44;;;;;;;;;;;;;;;10.85;100.00;99889.88;3053214;19;19986;-50
2022/09/12 04:55:48;;;;;;;;;;;;;;;10.86;100.00;99893.41;3052873;19;19927;-52
2022/09/12 04:56:51;;;;;;;;;;;;;;;10.85;100.00;99897.03;3052184;19;19923;-54
2022/09/12 04:57:56;;;;;;;;;;;;;;;10.90;100.00;99893.06;3053571;19;19935;-52
2022/09/12 04:58:59;;;;;;;;;;;;;;;10.91;100.00;99889.44;3053132;19;19982;-51
2022/09/12 05:00:04;;;;;;;;;;;;;;;10.84;100.00;99882.84;3055927;19;19934;-52
2022/09/12 05:01:12;;;;;;;;;;;;;;;10.98;100.00;99897.84;3056028;19;20283;-51
2022/09/12 05:02:17;;;;;;;;;;;;;;;11.01;100.00;99889.59;3055786;19;19938;-52
2022/09/12 05:03:19;;;;;;;;;;;;;;;11.07;100.00;99894.50;3056228;19;19929;-53
2022/09/12 05:04:23;;;;;;;;;;;;;;;11.04;100.00;99900.91;3056125;19;19935;-48
2022/09/12 05:05:25;;;;;;;;;;;;;;;11.03;100.00;99904.56;3055911;19;19989;-54
2022/09/12 05:06:31;;;;;;;;;;;;;;;11.10;100.00;99899.63;3055568;19;19931;-54
2022/09/12 05:07:35;;;;;;;;;;;;;;;11.15;100.00;99897.47;3049376;19;19933;-53
2022/09/12 05:08:37;;;;;;;;;;;;;;;11.18;100.00;99897.25;3048669;19;19919;-56
2022/09/12 05:09:41;;;;;;;;;;;;;;;11.22;100.00;99900.56;3048630;19;19929;-55
2022/09/12 05:10:43;;;;;;;;;;;;;;;11.22;100.00;99897.88;3050009;19;20369;-51
2022/09/12 05:11:48;;;;;;;;;;;;;;;11.18;100.00;99907.94;3051021;19;20022;-50
2022/09/12 05:13:09;;;;;;;;;;;;;;;11.24;100.00;99903.94;3051240;19;19927;-54
2022/09/12 05:14:11;;;;;;;;;;;;;;;11.28;100.00;99908.09;3052057;19;20977;-52
2022/09/12 05:15:15;;;;;;;;;;;;;;;11.30;100.00;99906.16;3055313;19;20446;-50
2022/09/12 05:16:17;;;;;;;;;;;;;;;11.24;100.00;99917.28;3055389;19;19922;-56
2022/09/12 05:17:21;;;;;;;;;;;;;;;11.26;100.00;99910.88;3055617;19;20290;-53
2022/09/12 05:18:23;;;;;;;;;;;;;;;11.30;100.00;99906.16;3055195;19;19986;-54
2022/09/12 05:19:28;;;;;;;;;;;;;;;11.31;100.00;99918.56;3054756;19;19945;-56
2022/09/12 05:20:32;;;;;;;;;;;;;;;11.30;100.00;99922.19;3054746;19;20010;-52
2022/09/12 05:21:36;;;;;;;;;;;;;;;11.34;100.00;99919.19;3055170;19;19919;-52
2022/09/12 05:22:38;;;;;;;;;;;;;;;11.34;100.00;99924.53;3053395;19;19992;-48
2022/09/12 05:23:42;;;;;;;;;;;;;;;11.34;100.00;99934.38;3054656;19;19919;-51
2022/09/12 05:24:47;;;;;;;;;;;;;;;11.38;100.00;99914.47;3054766;19;19939;-51
2022/09/12 05:25:51;;;;;;;;;;;;;;;11.38;100.00;99926.00;3053906;19;19927;-52
2022/09/12 05:26:56;;;;;;;;;;;;;;;11.38;100.00;99927.81;3054673;19;19969;-47
2022/09/12 05:27:57;;;;;;;;;;;;;;;11.39;100.00;99927.72;3055942;19;19934;-52
2022/09/12 05:29:03;;;;;;;;;;;;;;;11.40;100.00;99925.91;3055544;19;19940;-51
2022/09/12 05:30:05;;;;;;;;;;;;;;;11.39;100.00;99926.84;3048357;19;21667;-51
2022/09/12 05:31:16;;;;;;;;;;;;;;;11.40;100.00;99932.09;3048785;19;19935;-55
2022/09/12 05:32:18;;;;;;;;;;;;;;;11.42;100.00;99938.19;3048569;19;20366;-53
2022/09/12 05:33:22;;;;;;;;;;;;;;;11.44;100.00;99941.59;3050039;19;19978;-53
2022/09/12 05:34:26;;;;;;;;;;;;;;;11.45;100.00;99937.97;3050041;19;19927;-48
2022/09/12 05:35:31;;;;;;;;;;;;;;;11.48;100.00;99947.53;3051587;19;19918;-52
2022/09/12 05:36:33;;;;;;;;;;;;;;;11.48;100.00;99952.88;3050382;19;20342;-52
2022/09/12 05:37:38;;;;;;;;;;;;;;;11.51;100.00;99950.00;3054705;19;20330;-55
2022/09/12 05:38:40;;;;;;;;;;;;;;;11.57;100.00;99946.03;3054515;19;20003;-51